createdAt,value
2023-08-20T00:01:36.550Z,63.90
2023-08-20T00:04:04.627Z,64.18
2023-08-20T00:06:33.473Z,72.53
2023-08-20T00:09:01.259Z,70.75
2023-08-20T00:11:28.580Z,63.42
2023-08-20T00:13:55.660Z,62.05
2023-08-20T00:16:22.986Z,65.03
2023-08-20T00:18:50.198Z,68.63
2023-08-20T00:21:17.651Z,70.25
2023-08-20T00:23:44.853Z,74.18
2023-08-20T00:26:14.030Z,75.18
2023-08-20T00:28:41.900Z,78.60
2023-08-20T00:31:09.067Z,80.97
2023-08-20T00:33:36.707Z,67.40
2023-08-20T00:36:04.037Z,65.82
2023-08-20T00:38:31.711Z,65.28
2023-08-20T00:40:59.607Z,68.53
2023-08-20T00:43:26.831Z,65.57
2023-08-20T00:45:54.707Z,67.28
2023-08-20T00:48:22.183Z,64.82
2023-08-20T00:50:49.856Z,65.55
2023-08-20T00:53:18.231Z,65.53
2023-08-20T00:55:46.636Z,64.68
2023-08-20T00:58:14.257Z,68.50
2023-08-20T01:00:41.512Z,68.72
2023-08-20T01:03:10.896Z,69.05
2023-08-20T01:05:45.395Z,70.20
2023-08-20T01:08:23.452Z,62.22
2023-08-20T01:10:59.306Z,58.95
2023-08-20T01:13:27.065Z,61.03
2023-08-20T01:15:54.497Z,69.85
2023-08-20T01:18:21.761Z,69.15
2023-08-20T01:20:54.365Z,71.43
2023-08-20T01:23:58.580Z,68.07
2023-08-20T01:26:51.098Z,58.55
2023-08-20T01:29:18.811Z,59.50
2023-08-20T01:31:46.492Z,59.28
2023-08-20T01:34:14.416Z,55.05
2023-08-20T01:36:41.746Z,52.88
2023-08-20T01:39:11.861Z,62.20
2023-08-20T01:41:39.291Z,57.53
2023-08-20T01:44:06.695Z,59.17
2023-08-20T01:46:34.086Z,61.75
2023-08-20T01:49:01.336Z,56.03
2023-08-20T01:51:29.477Z,61.10
2023-08-20T01:53:58.459Z,50.53
2023-08-20T01:56:25.687Z,54.65
2023-08-20T01:58:52.880Z,52.97
2023-08-20T02:01:21.179Z,55.53
2023-08-20T02:03:48.244Z,62.00
2023-08-20T02:06:15.342Z,69.82
2023-08-20T02:08:45.954Z,62.22
2023-08-20T02:11:12.941Z,49.60
2023-08-20T02:13:40.036Z,44.10
2023-08-20T02:16:08.106Z,49.85
2023-08-20T02:18:35.389Z,56.03
2023-08-20T02:21:02.405Z,58.78
2023-08-20T02:23:29.586Z,50.70
2023-08-20T02:25:57.169Z,47.95
2023-08-20T02:28:24.291Z,49.72
2023-08-20T02:30:51.950Z,45.25
2023-08-20T02:33:19.087Z,44.75
2023-08-20T02:35:46.363Z,44.03
2023-08-20T02:38:13.413Z,50.40
2023-08-20T02:40:44.735Z,53.97
2023-08-20T02:43:13.163Z,59.08
2023-08-20T02:45:46.639Z,50.17
2023-08-20T02:48:15.199Z,45.13
2023-08-20T02:50:42.613Z,43.03
2023-08-20T02:53:09.895Z,42.60
2023-08-20T02:55:36.918Z,50.10
2023-08-20T02:58:05.141Z,51.38
2023-08-20T03:00:32.722Z,66.07
2023-08-20T03:02:59.990Z,62.25
2023-08-20T03:05:27.345Z,58.45
2023-08-20T03:07:57.612Z,61.35
2023-08-20T03:10:24.954Z,56.85
2023-08-20T03:12:51.952Z,62.75
2023-08-20T03:15:19.021Z,71.68
2023-08-20T03:17:46.135Z,62.65
2023-08-20T03:20:13.497Z,74.55
2023-08-20T03:22:40.545Z,67.57
2023-08-20T03:25:08.271Z,65.80
2023-08-20T03:27:35.713Z,68.93
2023-08-20T03:30:05.118Z,67.40
2023-08-20T03:32:33.284Z,60.78
2023-08-20T03:35:02.883Z,58.95
2023-08-20T03:37:30.318Z,56.42
2023-08-20T03:39:58.190Z,59.22
2023-08-20T03:42:25.099Z,59.08
2023-08-20T03:44:52.139Z,59.78
2023-08-20T03:47:21.708Z,59.75
2023-08-20T03:49:49.613Z,49.88
2023-08-20T03:52:16.875Z,48.42
2023-08-20T03:54:43.910Z,45.65
2023-08-20T03:57:10.923Z,43.25
2023-08-20T03:59:37.951Z,38.92
2023-08-20T04:02:05.248Z,38.63
2023-08-20T04:04:32.818Z,37.75
2023-08-20T04:07:00.181Z,33.83
2023-08-20T04:09:27.105Z,30.73
2023-08-20T04:11:54.179Z,30.55
2023-08-20T04:14:21.208Z,30.08
2023-08-20T04:16:48.275Z,29.42
2023-08-20T04:19:15.229Z,26.95
2023-08-20T04:21:42.511Z,26.02
2023-08-20T04:24:09.919Z,26.27
2023-08-20T04:26:37.159Z,26.63
2023-08-20T04:29:04.439Z,25.00
2023-08-20T04:31:31.583Z,24.90
2023-08-20T04:34:04.378Z,22.83
2023-08-20T04:36:39.854Z,22.05
2023-08-20T04:39:06.945Z,21.98
2023-08-20T04:41:37.096Z,22.52
2023-08-20T04:44:04.859Z,19.75
2023-08-20T04:46:31.874Z,20.42
2023-08-20T04:48:59.348Z,23.10
2023-08-20T04:51:26.380Z,22.40
2023-08-20T04:53:53.537Z,22.35
2023-08-20T04:56:20.566Z,21.23
2023-08-20T04:58:47.693Z,22.17
2023-08-20T05:01:28.082Z,22.65
2023-08-20T05:03:55.229Z,21.65
2023-08-20T05:06:22.559Z,19.27
2023-08-20T05:08:49.598Z,19.60
2023-08-20T05:11:16.738Z,20.27
2023-08-20T05:13:46.460Z,20.88
2023-08-20T05:16:14.071Z,21.23
2023-08-20T05:18:41.222Z,20.00
2023-08-20T05:21:08.379Z,18.40
2023-08-20T05:23:37.870Z,19.38
2023-08-20T05:26:04.888Z,22.95
2023-08-20T05:28:32.626Z,23.33
2023-08-20T05:31:00.370Z,23.10
2023-08-20T05:33:27.862Z,23.15
2023-08-20T05:35:56.221Z,24.15
2023-08-20T05:38:23.586Z,23.67
2023-08-20T05:40:51.805Z,25.42
2023-08-20T05:43:18.918Z,26.95
2023-08-20T05:45:46.203Z,25.75
2023-08-20T05:48:18.835Z,23.60
2023-08-20T05:50:46.253Z,24.92
2023-08-20T05:53:13.418Z,26.40
2023-08-20T05:55:44.476Z,25.40
2023-08-20T05:58:12.471Z,25.77
2023-08-20T06:00:39.710Z,20.60
2023-08-20T06:03:08.688Z,22.75
2023-08-20T06:05:36.082Z,23.85
2023-08-20T06:08:03.322Z,26.75
2023-08-20T06:10:30.501Z,32.65
2023-08-20T06:12:58.370Z,26.80
2023-08-20T06:15:25.773Z,27.02
2023-08-20T06:17:52.879Z,25.95
2023-08-20T06:20:20.090Z,24.08
2023-08-20T06:22:47.538Z,21.70
2023-08-20T06:25:14.685Z,19.80
2023-08-20T06:27:43.004Z,18.90
2023-08-20T06:30:10.895Z,17.77
2023-08-20T06:32:37.937Z,16.42
2023-08-20T06:35:05.617Z,15.95
2023-08-20T06:37:33.277Z,18.17
2023-08-20T06:40:00.758Z,15.23
2023-08-20T06:42:27.952Z,15.73
2023-08-20T06:44:55.437Z,12.75
2023-08-20T06:47:22.469Z,14.55
2023-08-20T06:49:50.749Z,15.18
2023-08-20T06:52:18.299Z,13.48
2023-08-20T06:54:46.239Z,13.25
2023-08-20T06:57:13.442Z,12.18
2023-08-20T06:59:40.629Z,12.52
2023-08-20T07:02:07.751Z,12.70
2023-08-20T07:04:35.330Z,11.82
2023-08-20T07:07:02.496Z,11.90
2023-08-20T07:09:29.696Z,10.85
2023-08-20T07:11:57.122Z,11.55
2023-08-20T07:14:24.343Z,11.85
2023-08-20T07:16:51.439Z,10.77
2023-08-20T07:19:18.882Z,10.13
2023-08-20T07:21:46.082Z,9.07
2023-08-20T07:24:13.331Z,9.35
2023-08-20T07:26:40.788Z,9.73
2023-08-20T07:29:07.898Z,8.20
2023-08-20T07:31:39.654Z,7.80
2023-08-20T07:36:39.881Z,8.82
2023-08-20T07:39:07.115Z,8.73
2023-08-20T07:41:34.304Z,9.40
2023-08-20T07:44:01.453Z,9.95
2023-08-20T07:46:28.710Z,8.68
2023-08-20T07:48:55.893Z,7.80
2023-08-20T07:51:23.108Z,8.45
2023-08-20T07:53:50.233Z,9.32
2023-08-20T07:56:17.252Z,8.90
2023-08-20T07:58:44.570Z,9.20
2023-08-20T08:01:11.609Z,8.32
2023-08-20T08:03:39.031Z,8.80
2023-08-20T08:06:06.411Z,8.38
2023-08-20T08:08:33.544Z,8.02
2023-08-20T08:11:00.800Z,8.15
2023-08-20T08:13:28.042Z,9.48
2023-08-20T08:15:55.531Z,8.35
2023-08-20T08:18:22.983Z,8.77
2023-08-20T08:20:50.722Z,12.55
2023-08-20T08:23:17.687Z,9.40
2023-08-20T08:25:44.889Z,8.43
2023-08-20T08:28:11.912Z,9.45
2023-08-20T08:30:39.764Z,10.13
2023-08-20T08:33:06.830Z,9.23
2023-08-20T08:35:33.898Z,9.13
2023-08-20T08:38:04.777Z,9.23
2023-08-20T08:40:32.110Z,9.68
2023-08-20T08:42:59.865Z,9.52
2023-08-20T08:45:28.153Z,10.13
2023-08-20T08:47:56.578Z,9.70
2023-08-20T08:50:23.892Z,8.93
2023-08-20T08:52:54.015Z,9.60
2023-08-20T08:55:21.368Z,9.05
2023-08-20T08:57:48.823Z,9.52
2023-08-20T09:00:16.479Z,9.50
2023-08-20T09:02:44.186Z,9.85
2023-08-20T09:05:12.582Z,10.00
2023-08-20T09:07:46.144Z,10.73
2023-08-20T09:10:13.848Z,9.93
2023-08-20T09:12:41.135Z,10.23
2023-08-20T09:15:12.825Z,9.40
2023-08-20T09:17:43.305Z,9.60
2023-08-20T09:20:10.986Z,9.90
2023-08-20T09:22:38.958Z,9.65
2023-08-20T09:25:06.445Z,9.85
2023-08-20T09:27:41.378Z,9.85
2023-08-20T09:30:09.186Z,9.70
2023-08-20T09:32:36.276Z,9.98
2023-08-20T09:35:03.484Z,10.75
2023-08-20T09:37:30.436Z,9.95
2023-08-20T09:39:57.664Z,9.93
2023-08-20T09:42:29.336Z,9.23
2023-08-20T09:44:56.770Z,9.85
2023-08-20T09:47:25.820Z,9.50
2023-08-20T09:49:54.056Z,9.18
2023-08-20T09:52:27.221Z,9.48
2023-08-20T09:55:10.082Z,11.10
2023-08-20T09:57:41.977Z,9.70
2023-08-20T10:00:13.469Z,9.15
2023-08-20T10:02:42.025Z,9.70
2023-08-20T10:05:13.355Z,11.30
2023-08-20T10:10:15.066Z,8.85
2023-08-20T10:12:43.296Z,8.38
2023-08-20T10:15:11.749Z,15.90
2023-08-20T10:17:40.759Z,9.35
2023-08-20T10:20:12.168Z,8.80
2023-08-20T10:22:43.960Z,9.10
2023-08-20T10:25:24.322Z,8.52
2023-08-20T10:27:51.654Z,8.93
2023-08-20T10:30:22.564Z,9.55
2023-08-20T10:32:51.606Z,9.25
2023-08-20T10:35:24.971Z,8.93
2023-08-20T10:38:19.584Z,9.32
2023-08-20T10:40:57.201Z,10.52
2023-08-20T10:43:35.785Z,9.25
2023-08-20T10:46:26.667Z,8.27
2023-08-20T10:49:02.497Z,10.77
2023-08-20T10:51:34.650Z,8.60
2023-08-20T10:54:08.419Z,9.57
2023-08-20T10:56:44.815Z,9.75
2023-08-20T10:59:32.024Z,8.77
2023-08-20T11:02:00.559Z,9.18
2023-08-20T11:04:35.760Z,9.57
2023-08-20T11:07:04.391Z,9.48
2023-08-20T11:09:32.472Z,9.23
2023-08-20T11:12:00.569Z,9.68
2023-08-20T11:14:27.962Z,12.85
2023-08-20T11:16:55.523Z,9.18
2023-08-20T11:19:24.165Z,9.90
2023-08-20T11:21:52.255Z,9.23
2023-08-20T11:24:21.127Z,9.68
2023-08-20T11:26:48.767Z,10.00
2023-08-20T11:29:21.211Z,9.90
2023-08-20T11:31:49.835Z,13.00
2023-08-20T11:34:17.827Z,9.40
2023-08-20T11:36:45.209Z,11.50
2023-08-20T11:39:12.695Z,9.70
2023-08-20T11:41:40.820Z,9.35
2023-08-20T11:44:10.502Z,9.50
2023-08-20T11:46:44.473Z,9.35
2023-08-20T11:49:12.888Z,9.13
2023-08-20T11:51:41.774Z,9.52
2023-08-20T11:54:11.402Z,10.25
2023-08-20T11:56:46.693Z,9.50
2023-08-20T11:59:15.213Z,10.10
2023-08-20T12:01:42.489Z,9.18
2023-08-20T12:04:11.349Z,12.55
2023-08-20T12:06:39.576Z,8.43
2023-08-20T12:09:26.847Z,8.43
2023-08-20T12:11:57.319Z,12.02
2023-08-20T12:14:24.996Z,15.03
2023-08-20T12:16:52.697Z,9.88
2023-08-20T12:19:20.206Z,17.88
2023-08-20T12:21:47.361Z,13.80
2023-08-20T12:24:14.813Z,11.75
2023-08-20T12:26:41.996Z,15.25
2023-08-20T12:29:09.721Z,11.40
2023-08-20T12:31:37.152Z,10.10
2023-08-20T12:34:04.698Z,10.52
2023-08-20T12:36:32.008Z,10.45
2023-08-20T12:38:59.401Z,11.70
2023-08-20T12:41:26.798Z,12.90
2023-08-20T12:43:53.968Z,12.02
2023-08-20T12:46:21.610Z,12.48
2023-08-20T12:48:48.853Z,12.90
2023-08-20T12:51:18.450Z,13.80
2023-08-20T12:53:45.808Z,13.25
2023-08-20T12:56:13.261Z,11.73
2023-08-20T12:58:40.569Z,11.85
2023-08-20T13:01:08.338Z,11.10
2023-08-20T13:03:36.212Z,10.40
2023-08-20T13:06:03.706Z,10.10
2023-08-20T13:08:31.964Z,10.98
2023-08-20T13:10:59.677Z,11.85
2023-08-20T13:13:27.354Z,10.90
2023-08-20T13:15:55.408Z,10.60
2023-08-20T13:18:26.596Z,10.90
2023-08-20T13:20:54.659Z,10.40
2023-08-20T13:23:21.964Z,12.63
2023-08-20T13:25:49.123Z,11.45
2023-08-20T13:28:16.344Z,10.00
2023-08-20T13:30:43.627Z,10.00
2023-08-20T13:33:10.685Z,10.77
2023-08-20T13:35:37.961Z,10.95
2023-08-20T13:38:05.932Z,9.95
2023-08-20T13:40:33.154Z,10.13
2023-08-20T13:43:00.381Z,11.35
2023-08-20T13:45:27.632Z,9.75
2023-08-20T13:47:54.884Z,9.75
2023-08-20T13:50:22.357Z,9.32
2023-08-20T13:52:49.560Z,9.40
2023-08-20T13:55:16.894Z,9.13
2023-08-20T13:57:44.164Z,9.75
2023-08-20T14:00:13.888Z,8.63
2023-08-20T14:02:41.747Z,9.13
2023-08-20T14:05:09.641Z,9.00
2023-08-20T14:07:36.900Z,8.60
2023-08-20T14:10:05.617Z,8.23
2023-08-20T14:12:33.067Z,8.18
2023-08-20T14:15:00.198Z,8.35
2023-08-20T14:17:28.590Z,9.55
2023-08-20T14:19:55.660Z,8.48
2023-08-20T14:22:23.014Z,9.10
2023-08-20T14:24:49.930Z,8.60
2023-08-20T14:27:17.018Z,9.45
2023-08-20T14:29:44.145Z,8.35
2023-08-20T14:32:11.422Z,9.13
2023-08-20T14:34:38.435Z,8.57
2023-08-20T14:37:05.633Z,9.05
2023-08-20T14:39:33.049Z,9.25
2023-08-20T14:42:00.849Z,8.95
2023-08-20T14:44:28.727Z,9.63
2023-08-20T14:46:56.052Z,9.63
2023-08-20T14:49:23.157Z,9.57
2023-08-20T14:51:50.766Z,9.57
2023-08-20T14:54:17.799Z,9.93
2023-08-20T14:56:45.771Z,9.43
2023-08-20T14:59:12.812Z,9.48
2023-08-20T15:01:40.091Z,12.93
2023-08-20T15:04:08.124Z,9.80
2023-08-20T15:06:35.390Z,10.15
2023-08-20T15:09:02.372Z,9.50
2023-08-20T15:11:29.509Z,10.10
2023-08-20T15:13:56.778Z,11.13
2023-08-20T15:16:23.987Z,9.68
2023-08-20T15:18:51.311Z,9.80
2023-08-20T15:21:18.503Z,9.50
2023-08-20T15:23:45.794Z,9.65
2023-08-20T15:26:13.439Z,9.85
2023-08-20T15:28:40.773Z,9.65
2023-08-20T15:31:08.873Z,10.05
2023-08-20T15:33:36.108Z,8.85
2023-08-20T15:36:04.288Z,9.45
2023-08-20T15:38:31.270Z,9.15
2023-08-20T15:41:00.350Z,9.57
2023-08-20T15:43:28.475Z,10.98
2023-08-20T15:45:58.471Z,9.20
2023-08-20T15:48:25.484Z,9.30
2023-08-20T15:50:52.659Z,9.90
2023-08-20T15:53:19.901Z,8.85
2023-08-20T15:55:48.035Z,12.50
2023-08-20T15:58:15.247Z,9.10
2023-08-20T16:00:42.334Z,8.55
2023-08-20T16:03:10.165Z,9.18
2023-08-20T16:05:37.183Z,9.27
2023-08-20T16:08:04.667Z,9.30
2023-08-20T16:10:31.954Z,9.00
2023-08-20T16:12:59.155Z,9.15
2023-08-20T16:15:27.253Z,8.75
2023-08-20T16:17:55.849Z,8.98
2023-08-20T16:20:23.376Z,8.18
2023-08-20T16:22:50.761Z,9.38
2023-08-20T16:25:17.969Z,8.50
2023-08-20T16:27:45.168Z,9.25
2023-08-20T16:30:12.773Z,8.68
2023-08-20T16:32:40.238Z,8.70
2023-08-20T16:35:07.965Z,9.23
2023-08-20T16:37:35.569Z,9.20
2023-08-20T16:40:06.625Z,8.32
2023-08-20T16:42:33.861Z,8.80
2023-08-20T16:45:00.996Z,8.90
2023-08-20T16:47:28.139Z,8.55
2023-08-20T16:49:55.351Z,8.88
2023-08-20T16:52:22.368Z,8.60
2023-08-20T16:54:49.563Z,10.18
2023-08-20T16:57:16.787Z,10.48
2023-08-20T16:59:43.910Z,9.57
2023-08-20T17:02:11.102Z,9.85
2023-08-20T17:04:38.177Z,8.45
2023-08-20T17:07:05.567Z,8.43
2023-08-20T17:09:32.832Z,6.88
2023-08-20T17:12:00.429Z,7.20
2023-08-20T17:14:28.290Z,6.28
2023-08-20T17:16:56.272Z,6.40
2023-08-20T17:19:24.270Z,5.20
2023-08-20T17:21:51.931Z,5.80
2023-08-20T17:24:19.609Z,5.32
2023-08-20T17:26:47.021Z,5.75
2023-08-20T17:29:14.107Z,5.70
2023-08-20T17:31:41.320Z,6.28
2023-08-20T17:34:09.475Z,5.90
2023-08-20T17:36:36.765Z,7.53
2023-08-20T17:39:04.810Z,6.25
2023-08-20T17:41:32.428Z,6.03
2023-08-20T17:43:59.663Z,5.50
2023-08-20T17:46:26.912Z,5.68
2023-08-20T17:48:54.071Z,6.18
2023-08-20T17:51:21.215Z,5.80
2023-08-20T17:53:48.180Z,6.57
2023-08-20T17:56:15.430Z,6.30
2023-08-20T17:58:42.504Z,6.22
2023-08-20T18:01:09.780Z,6.32
2023-08-20T18:03:36.854Z,6.68
2023-08-20T18:06:04.012Z,7.50
2023-08-20T18:08:31.235Z,7.68
2023-08-20T18:11:00.012Z,7.30
2023-08-20T18:13:27.427Z,11.23
2023-08-20T18:15:54.552Z,8.65
2023-08-20T18:18:21.628Z,8.70
2023-08-20T18:20:48.923Z,8.52
2023-08-20T18:23:18.041Z,9.18
2023-08-20T18:25:45.236Z,9.50
2023-08-20T18:28:12.391Z,9.63
2023-08-20T18:30:39.496Z,8.98
2023-08-20T18:33:06.733Z,8.50
2023-08-20T18:35:40.988Z,8.48
2023-08-20T18:38:19.998Z,8.27
2023-08-20T18:40:47.940Z,7.95
2023-08-20T18:43:15.211Z,8.13
2023-08-20T18:45:43.252Z,7.63
2023-08-20T18:48:10.831Z,8.40
2023-08-20T18:50:40.231Z,8.75
2023-08-20T18:53:08.631Z,7.93
2023-08-20T18:55:36.015Z,10.30
2023-08-20T18:58:03.509Z,6.75
2023-08-20T19:00:30.961Z,6.32
2023-08-20T19:02:58.183Z,6.30
2023-08-20T19:05:25.411Z,6.70
2023-08-20T19:07:54.322Z,7.15
2023-08-20T19:10:21.388Z,6.68
2023-08-20T19:12:48.644Z,6.95
2023-08-20T19:15:15.688Z,7.43
2023-08-20T19:17:42.798Z,11.65
2023-08-20T19:20:10.343Z,7.28
2023-08-20T19:22:39.443Z,6.70
2023-08-20T19:25:08.085Z,6.43
2023-08-20T19:27:35.642Z,6.60
2023-08-20T19:30:08.425Z,6.15
2023-08-20T19:32:36.936Z,5.80
2023-08-20T19:35:07.113Z,6.35
2023-08-20T19:37:34.318Z,5.55
2023-08-20T19:40:02.340Z,5.35
2023-08-20T19:42:29.549Z,5.95
2023-08-20T19:44:58.251Z,4.93
2023-08-20T19:47:25.509Z,5.68
2023-08-20T19:49:52.908Z,5.80
2023-08-20T19:52:20.286Z,5.30
2023-08-20T19:54:47.938Z,5.68
2023-08-20T19:57:16.106Z,6.40
2023-08-20T19:59:43.183Z,6.22
2023-08-20T20:02:10.239Z,6.50
2023-08-20T20:04:39.583Z,6.55
2023-08-20T20:09:49.907Z,6.47
2023-08-20T20:12:21.210Z,7.00
2023-08-20T20:14:50.499Z,7.95
2023-08-20T20:17:21.979Z,8.63
2023-08-20T20:19:54.505Z,9.38
2023-08-20T20:22:27.824Z,9.82
2023-08-20T20:24:59.018Z,9.88
2023-08-20T20:27:28.035Z,9.55
2023-08-20T20:29:57.326Z,9.85
2023-08-20T20:32:26.117Z,9.27
2023-08-20T20:34:54.492Z,9.20
2023-08-20T20:37:21.609Z,8.82
2023-08-20T20:39:48.762Z,8.43
2023-08-20T20:42:15.844Z,8.65
2023-08-20T20:44:44.058Z,8.85
2023-08-20T20:47:11.728Z,8.77
2023-08-20T20:49:39.045Z,7.97
2023-08-20T20:52:06.856Z,8.30
2023-08-20T20:54:34.000Z,8.82
2023-08-20T20:57:01.247Z,7.78
2023-08-20T20:59:28.384Z,8.23
2023-08-20T21:01:55.479Z,7.43
2023-08-20T21:04:22.636Z,7.93
2023-08-20T21:06:51.416Z,7.63
2023-08-20T21:09:18.749Z,8.05
2023-08-20T21:11:45.911Z,7.78
2023-08-20T21:14:12.964Z,8.15
2023-08-20T21:16:40.088Z,8.38
2023-08-20T21:19:07.400Z,7.75
2023-08-20T21:21:34.562Z,7.70
2023-08-20T21:24:01.631Z,8.55
2023-08-20T21:26:28.600Z,8.45
2023-08-20T21:28:55.512Z,8.05
2023-08-20T21:31:22.520Z,8.73
2023-08-20T21:33:49.499Z,8.93
2023-08-20T21:36:16.568Z,8.60
2023-08-20T21:38:43.413Z,8.82
2023-08-20T21:41:10.539Z,9.13
2023-08-20T21:43:37.758Z,9.40
2023-08-20T21:46:06.270Z,9.65
2023-08-20T21:48:33.389Z,9.38
2023-08-20T21:51:00.243Z,9.27
2023-08-20T21:53:27.484Z,9.02
2023-08-20T21:55:56.384Z,9.15
2023-08-20T21:58:23.807Z,9.13
2023-08-20T22:00:50.916Z,8.73
2023-08-20T22:03:17.931Z,8.38
2023-08-20T22:05:44.948Z,9.07
2023-08-20T22:08:14.444Z,7.80
2023-08-20T22:10:43.012Z,8.25
2023-08-20T22:13:10.327Z,8.82
2023-08-20T22:15:37.345Z,8.35
2023-08-20T22:18:04.556Z,9.10
2023-08-20T22:20:31.530Z,9.82
2023-08-20T22:22:58.553Z,9.85
2023-08-20T22:25:25.821Z,9.43
2023-08-20T22:27:52.955Z,9.98
2023-08-20T22:30:21.396Z,9.15
2023-08-20T22:32:48.355Z,9.05
2023-08-20T22:35:15.374Z,9.40
2023-08-20T22:37:43.484Z,8.75
2023-08-20T22:40:10.737Z,9.45
2023-08-20T22:42:38.073Z,9.50
2023-08-20T22:45:05.743Z,9.57
2023-08-20T22:47:32.828Z,9.68
2023-08-20T22:49:59.799Z,9.27
2023-08-20T22:52:26.912Z,9.55
2023-08-20T22:54:53.854Z,9.60
2023-08-20T22:57:20.831Z,9.13
2023-08-20T22:59:48.152Z,9.40
2023-08-20T23:02:15.037Z,10.23
2023-08-20T23:04:43.141Z,9.43
2023-08-20T23:07:11.147Z,9.25
2023-08-20T23:09:38.136Z,10.45
2023-08-20T23:12:05.434Z,10.30
2023-08-20T23:14:32.264Z,12.02
2023-08-20T23:16:59.342Z,11.80
2023-08-20T23:19:27.002Z,10.70
2023-08-20T23:21:53.956Z,11.57
2023-08-20T23:24:22.883Z,11.43
2023-08-20T23:26:51.054Z,11.63
2023-08-20T23:29:18.501Z,11.75
2023-08-20T23:31:45.926Z,11.75
2023-08-20T23:34:12.978Z,12.05
2023-08-20T23:36:39.819Z,11.45
2023-08-20T23:39:06.768Z,11.88
2023-08-20T23:41:33.908Z,11.52
2023-08-20T23:44:00.888Z,11.15
2023-08-20T23:46:46.498Z,10.65
2023-08-20T23:49:14.999Z,10.18
2023-08-20T23:51:41.840Z,9.55
2023-08-20T23:54:09.856Z,9.95
2023-08-20T23:56:36.761Z,11.23
2023-08-20T23:59:03.862Z,9.82
